createdAt,value
2023-01-22T00:02:37.361Z,82.24
2023-01-22T00:05:38.963Z,82.19
2023-01-22T00:08:40.843Z,82.09
2023-01-22T00:11:42.169Z,82.26
2023-01-22T00:14:43.810Z,82.32
2023-01-22T00:17:45.218Z,82.32
2023-01-22T00:20:51.206Z,82.29
2023-01-22T00:23:52.737Z,82.28
2023-01-22T00:26:54.117Z,82.15
2023-01-22T00:29:55.668Z,82.25
2023-01-22T00:32:57.083Z,82.28
2023-01-22T00:36:10.414Z,82.22
2023-01-22T00:39:11.778Z,82.32
2023-01-22T00:42:13.145Z,82.36
2023-01-22T00:45:14.615Z,82.30
2023-01-22T00:48:15.973Z,82.20
2023-01-22T00:51:17.828Z,82.00
2023-01-22T00:54:19.573Z,81.89
2023-01-22T00:57:21.965Z,82.06
2023-01-22T01:00:23.477Z,82.01
2023-01-22T01:03:29.551Z,81.96
2023-01-22T01:06:31.078Z,81.82
2023-01-22T01:09:32.558Z,81.51
2023-01-22T01:12:33.925Z,81.39
2023-01-22T01:15:35.338Z,81.33
2023-01-22T01:18:37.173Z,81.31
2023-01-22T01:21:39.002Z,81.24
2023-01-22T01:24:40.407Z,81.36
2023-01-22T01:27:41.823Z,81.13
2023-01-22T01:30:44.116Z,81.17
2023-01-22T01:33:46.042Z,81.19
2023-01-22T01:36:49.426Z,81.17
2023-01-22T01:39:51.860Z,81.19
2023-01-22T01:42:53.433Z,81.04
2023-01-22T01:46:01.894Z,81.29
2023-01-22T01:49:03.742Z,81.38
2023-01-22T01:52:11.515Z,81.40
2023-01-22T01:55:17.029Z,81.21
2023-01-22T01:58:22.506Z,81.22
2023-01-22T02:01:25.310Z,81.40
2023-01-22T02:04:27.768Z,81.65
2023-01-22T02:07:29.457Z,81.64
2023-01-22T02:10:31.001Z,81.65
2023-01-22T02:13:35.077Z,81.60
2023-01-22T02:16:36.578Z,81.49
2023-01-22T02:19:39.685Z,81.63
2023-01-22T02:22:41.679Z,81.52
2023-01-22T02:25:43.075Z,81.70
2023-01-22T02:28:45.665Z,82.07
2023-01-22T02:31:47.109Z,82.14
2023-01-22T02:34:48.624Z,82.05
2023-01-22T02:37:50.156Z,82.03
2023-01-22T02:40:51.593Z,82.03
2023-01-22T02:43:54.149Z,82.05
2023-01-22T02:46:57.664Z,81.82
2023-01-22T02:49:59.089Z,81.85
2023-01-22T02:53:00.480Z,81.92
2023-01-22T02:56:07.460Z,81.93
2023-01-22T02:59:08.931Z,81.85
2023-01-22T03:02:10.972Z,81.98
2023-01-22T03:05:12.875Z,82.22
2023-01-22T03:08:14.843Z,82.30
2023-01-22T03:11:16.279Z,82.43
2023-01-22T03:14:36.846Z,82.60
2023-01-22T03:17:57.160Z,82.76
2023-01-22T03:21:18.127Z,82.60
2023-01-22T03:24:19.616Z,82.31
2023-01-22T03:27:23.741Z,82.52
2023-01-22T03:30:25.250Z,82.52
2023-01-22T03:33:26.970Z,82.51
2023-01-22T03:36:28.974Z,82.35
2023-01-22T03:39:33.572Z,82.35
2023-01-22T03:42:36.908Z,82.49
2023-01-22T03:45:38.424Z,82.70
2023-01-22T03:48:41.014Z,82.96
2023-01-22T03:51:43.757Z,83.00
2023-01-22T03:54:45.097Z,83.08
2023-01-22T03:57:46.949Z,83.21
2023-01-22T04:00:48.790Z,83.16
2023-01-22T04:03:50.867Z,83.21
2023-01-22T04:06:52.358Z,83.27
2023-01-22T04:09:53.883Z,83.17
2023-01-22T04:12:55.310Z,83.07
2023-01-22T04:15:58.679Z,82.92
2023-01-22T04:19:19.964Z,82.67
2023-01-22T04:22:41.173Z,83.02
2023-01-22T04:25:45.377Z,82.95
2023-01-22T04:28:46.803Z,82.84
2023-01-22T04:31:49.776Z,82.97
2023-01-22T04:34:53.949Z,83.29
2023-01-22T04:37:59.053Z,83.40
2023-01-22T04:41:00.378Z,83.49
2023-01-22T04:44:01.906Z,83.43
2023-01-22T04:47:05.598Z,83.34
2023-01-22T04:50:08.120Z,83.55
2023-01-22T04:53:10.089Z,83.42
2023-01-22T04:56:11.562Z,83.19
2023-01-22T04:59:13.344Z,83.27
2023-01-22T05:02:15.117Z,83.26
2023-01-22T05:05:17.395Z,83.56
2023-01-22T05:08:18.851Z,83.43
2023-01-22T05:11:20.573Z,83.75
2023-01-22T05:14:27.392Z,83.91
2023-01-22T05:17:28.814Z,84.08
2023-01-22T05:20:31.063Z,84.16
2023-01-22T05:23:33.642Z,84.10
2023-01-22T05:26:36.244Z,84.14
2023-01-22T05:29:42.545Z,84.26
2023-01-22T05:32:58.318Z,84.15
2023-01-22T05:36:02.021Z,84.16
2023-01-22T05:39:03.749Z,84.34
2023-01-22T05:42:06.219Z,84.60
2023-01-22T05:45:09.493Z,84.67
2023-01-22T05:48:18.849Z,84.65
2023-01-22T05:51:32.173Z,84.52
2023-01-22T05:54:34.183Z,84.62
2023-01-22T05:57:37.045Z,84.78
2023-01-22T06:00:38.645Z,84.72
2023-01-22T06:03:41.293Z,84.81
2023-01-22T06:06:44.114Z,84.90
2023-01-22T06:09:45.521Z,85.22
2023-01-22T06:12:47.019Z,85.29
2023-01-22T06:15:48.907Z,85.29
2023-01-22T06:19:02.803Z,85.14
2023-01-22T06:22:09.543Z,85.08
2023-01-22T06:25:16.311Z,84.96
2023-01-22T06:28:36.602Z,85.12
2023-01-22T06:31:38.027Z,85.26
2023-01-22T06:34:41.595Z,85.17
2023-01-22T06:37:43.119Z,85.14
2023-01-22T06:40:51.297Z,85.00
2023-01-22T06:43:52.838Z,84.90
2023-01-22T06:46:54.323Z,84.61
2023-01-22T06:49:59.565Z,84.61
2023-01-22T06:53:01.006Z,84.41
2023-01-22T06:56:03.335Z,84.53
2023-01-22T06:59:04.930Z,84.41
2023-01-22T07:02:06.399Z,84.46
2023-01-22T07:05:08.363Z,84.52
2023-01-22T07:08:14.380Z,84.47
2023-01-22T07:11:15.767Z,84.69
2023-01-22T07:14:21.351Z,84.77
2023-01-22T07:17:30.332Z,84.91
2023-01-22T07:20:31.720Z,84.95
2023-01-22T07:23:33.118Z,84.86
2023-01-22T07:26:34.490Z,84.83
2023-01-22T07:29:35.840Z,85.10
2023-01-22T07:32:37.261Z,85.24
2023-01-22T07:35:39.207Z,85.19
2023-01-22T07:38:40.550Z,85.12
2023-01-22T07:41:42.135Z,84.84
2023-01-22T07:44:46.094Z,84.79
2023-01-22T07:47:53.790Z,84.76
2023-01-22T07:51:02.283Z,84.73
2023-01-22T07:54:03.882Z,84.65
2023-01-22T07:57:05.285Z,84.65
2023-01-22T08:00:10.027Z,84.75
2023-01-22T08:03:15.163Z,84.79
2023-01-22T08:06:20.011Z,84.56
2023-01-22T08:09:25.066Z,84.66
2023-01-22T08:12:26.454Z,84.64
2023-01-22T08:15:27.951Z,84.76
2023-01-22T08:18:29.430Z,84.82
2023-01-22T08:21:32.074Z,84.80
2023-01-22T08:24:36.398Z,84.85
2023-01-22T08:27:37.885Z,84.96
2023-01-22T08:30:46.558Z,84.96
2023-01-22T08:33:48.351Z,85.02
2023-01-22T08:36:49.795Z,84.99
2023-01-22T08:39:51.188Z,85.06
2023-01-22T08:42:53.803Z,85.06
2023-01-22T08:45:55.264Z,84.73
2023-01-22T08:48:56.741Z,84.75
2023-01-22T08:51:58.224Z,84.70
2023-01-22T08:54:59.583Z,84.81
2023-01-22T08:58:00.988Z,85.09
2023-01-22T09:01:02.844Z,84.88
2023-01-22T09:04:09.454Z,84.60
2023-01-22T09:07:11.019Z,84.75
2023-01-22T09:10:12.530Z,84.93
2023-01-22T09:13:13.933Z,84.86
2023-01-22T09:16:15.355Z,84.55
2023-01-22T09:19:16.792Z,84.34
2023-01-22T09:22:18.212Z,84.45
2023-01-22T09:25:19.913Z,84.79
2023-01-22T09:28:21.305Z,84.64
2023-01-22T09:31:22.696Z,84.61
2023-01-22T09:34:24.137Z,84.58
2023-01-22T09:37:25.697Z,84.64
2023-01-22T09:40:29.646Z,84.41
2023-01-22T09:43:37.249Z,84.36
2023-01-22T09:46:44.971Z,84.16
2023-01-22T09:49:55.631Z,83.89
2023-01-22T09:53:01.738Z,83.71
2023-01-22T09:56:05.431Z,83.69
2023-01-22T09:59:14.519Z,83.87
2023-01-22T10:02:47.412Z,83.62
2023-01-22T10:05:55.485Z,83.77
2023-01-22T10:09:07.249Z,84.01
2023-01-22T10:12:12.486Z,84.02
2023-01-22T10:15:23.575Z,84.00
2023-01-22T10:18:34.200Z,84.05
2023-01-22T10:21:43.590Z,84.03
2023-01-22T10:24:45.149Z,84.00
2023-01-22T10:27:56.909Z,83.74
2023-01-22T10:30:58.428Z,83.69
2023-01-22T10:34:03.288Z,83.69
2023-01-22T10:37:17.700Z,83.82
2023-01-22T10:40:35.136Z,83.95
2023-01-22T10:43:38.491Z,83.98
2023-01-22T10:46:39.899Z,84.15
2023-01-22T10:49:41.305Z,84.26
2023-01-22T10:52:48.048Z,84.31
2023-01-22T10:55:52.851Z,84.14
2023-01-22T10:58:56.422Z,84.35
2023-01-22T11:02:18.493Z,84.63
2023-01-22T11:05:26.832Z,84.71
2023-01-22T11:08:37.410Z,84.61
2023-01-22T11:11:44.713Z,84.67
2023-01-22T11:14:55.438Z,85.00
2023-01-22T11:18:00.289Z,85.03
2023-01-22T11:21:24.773Z,85.10
2023-01-22T11:24:37.150Z,85.22
2023-01-22T11:27:45.094Z,85.24
2023-01-22T11:31:10.769Z,85.23
2023-01-22T11:34:30.666Z,85.39
2023-01-22T11:38:06.318Z,85.51
2023-01-22T11:41:26.690Z,85.42
2023-01-22T11:45:12.711Z,85.45
2023-01-22T11:48:47.592Z,85.43
2023-01-22T11:52:19.124Z,85.42
2023-01-22T11:55:45.732Z,85.35
2023-01-22T11:59:02.461Z,85.50
2023-01-22T12:02:38.819Z,85.63
2023-01-22T12:05:40.231Z,85.64
2023-01-22T12:09:02.744Z,85.59
2023-01-22T12:12:13.450Z,85.65
2023-01-22T12:15:39.636Z,85.59
2023-01-22T12:18:53.150Z,85.73
2023-01-22T12:22:11.118Z,85.87
2023-01-22T12:25:21.331Z,85.86
2023-01-22T12:28:38.539Z,85.88
2023-01-22T12:31:50.242Z,86.04
2023-01-22T12:35:15.617Z,86.11
2023-01-22T12:38:19.719Z,86.29
2023-01-22T12:41:32.804Z,86.21
2023-01-22T12:44:43.985Z,86.07
2023-01-22T12:47:45.319Z,86.14
2023-01-22T12:50:51.819Z,86.31
2023-01-22T12:53:53.587Z,86.26
2023-01-22T12:57:13.743Z,86.38
2023-01-22T13:00:31.059Z,86.38
2023-01-22T13:03:34.450Z,86.54
2023-01-22T13:06:38.719Z,86.47
2023-01-22T13:09:40.088Z,86.33
2023-01-22T13:12:48.793Z,86.52
2023-01-22T13:15:58.116Z,86.59
2023-01-22T13:19:09.031Z,86.31
2023-01-22T13:22:15.436Z,86.17
2023-01-22T13:25:29.173Z,86.23
2023-01-22T13:28:31.276Z,86.33
2023-01-22T13:31:34.018Z,86.28
2023-01-22T13:34:35.421Z,86.04
2023-01-22T13:37:38.186Z,86.12
2023-01-22T13:40:50.808Z,85.91
2023-01-22T13:43:53.189Z,85.79
2023-01-22T13:46:54.647Z,85.98
2023-01-22T13:49:56.045Z,86.11
2023-01-22T13:53:00.479Z,86.04
2023-01-22T13:56:02.168Z,86.14
2023-01-22T13:59:17.392Z,86.09
2023-01-22T14:02:18.952Z,86.02
2023-01-22T14:05:24.030Z,85.84
2023-01-22T14:08:25.409Z,86.23
2023-01-22T14:11:37.044Z,86.00
2023-01-22T14:14:39.850Z,85.70
2023-01-22T14:17:41.415Z,85.87
2023-01-22T14:20:45.371Z,85.94
2023-01-22T14:23:46.776Z,85.80
2023-01-22T14:26:48.268Z,85.67
2023-01-22T14:29:52.814Z,85.58
2023-01-22T14:32:54.812Z,85.67
2023-01-22T14:35:57.181Z,85.77
2023-01-22T14:38:58.607Z,85.88
2023-01-22T14:42:00.503Z,85.81
2023-01-22T14:45:02.203Z,85.89
2023-01-22T14:48:03.869Z,85.61
2023-01-22T14:51:10.382Z,85.61
2023-01-22T14:54:12.139Z,85.54
2023-01-22T14:57:13.519Z,85.80
2023-01-22T15:00:17.717Z,85.76
2023-01-22T15:03:19.171Z,85.79
2023-01-22T15:06:20.552Z,85.56
2023-01-22T15:09:22.020Z,85.44
2023-01-22T15:12:23.600Z,85.48
2023-01-22T15:15:27.664Z,86.08
2023-01-22T15:18:29.332Z,85.99
2023-01-22T15:21:30.819Z,86.05
2023-01-22T15:24:32.137Z,86.07
2023-01-22T15:27:33.570Z,85.96
2023-01-22T15:30:34.990Z,85.64
2023-01-22T15:33:37.046Z,85.50
2023-01-22T15:36:39.181Z,85.75
2023-01-22T15:39:41.462Z,85.78
2023-01-22T15:42:42.927Z,86.02
2023-01-22T15:45:44.283Z,86.26
2023-01-22T15:48:46.196Z,85.99
2023-01-22T15:51:47.635Z,85.54
2023-01-22T15:54:52.818Z,85.17
2023-01-22T15:57:54.273Z,85.28
2023-01-22T16:00:57.372Z,85.36
2023-01-22T16:04:00.526Z,85.03
2023-01-22T16:07:02.123Z,84.85
2023-01-22T16:10:04.203Z,84.75
2023-01-22T16:13:05.570Z,84.61
2023-01-22T16:16:14.645Z,84.87
2023-01-22T16:19:15.990Z,85.23
2023-01-22T16:22:17.442Z,85.44
2023-01-22T16:25:19.446Z,85.23
2023-01-22T16:28:20.833Z,85.20
2023-01-22T16:31:26.250Z,85.32
2023-01-22T16:34:28.155Z,85.34
2023-01-22T16:37:29.558Z,85.24
2023-01-22T16:40:31.257Z,85.21
2023-01-22T16:43:32.906Z,85.26
2023-01-22T16:46:37.533Z,85.43
2023-01-22T16:49:38.924Z,85.84
2023-01-22T16:52:41.615Z,85.78
2023-01-22T16:55:42.997Z,85.54
2023-01-22T16:58:44.729Z,85.64
2023-01-22T17:01:46.204Z,85.75
2023-01-22T17:04:47.693Z,85.85
2023-01-22T17:07:49.001Z,85.75
2023-01-22T17:10:51.032Z,85.29
2023-01-22T17:13:53.403Z,85.16
2023-01-22T17:16:55.708Z,85.46
2023-01-22T17:19:57.219Z,85.49
2023-01-22T17:22:58.855Z,85.48
2023-01-22T17:26:05.608Z,85.19
2023-01-22T17:29:08.822Z,85.08
2023-01-22T17:32:10.277Z,85.25
2023-01-22T17:35:12.885Z,85.22
2023-01-22T17:38:14.249Z,85.46
2023-01-22T17:41:19.132Z,85.53
2023-01-22T17:44:20.608Z,85.55
2023-01-22T17:47:22.879Z,85.64
2023-01-22T17:50:24.695Z,85.75
2023-01-22T17:53:26.079Z,85.61
2023-01-22T17:56:30.377Z,85.52
2023-01-22T17:59:31.820Z,85.96
2023-01-22T18:02:33.302Z,85.87
2023-01-22T18:05:34.928Z,85.60
2023-01-22T18:08:39.347Z,85.79
2023-01-22T18:11:42.472Z,85.32
2023-01-22T18:14:43.985Z,85.18
2023-01-22T18:17:45.357Z,85.40
2023-01-22T18:20:46.937Z,85.64
2023-01-22T18:23:49.084Z,85.23
2023-01-22T18:26:50.651Z,84.98
2023-01-22T18:29:52.168Z,85.05
2023-01-22T18:32:53.642Z,85.23
2023-01-22T18:35:55.065Z,85.31
2023-01-22T18:39:02.277Z,85.42
2023-01-22T18:42:03.670Z,85.33
2023-01-22T18:45:06.274Z,85.28
2023-01-22T18:48:11.192Z,85.53
2023-01-22T18:51:13.287Z,85.28
2023-01-22T18:54:15.909Z,85.22
2023-01-22T18:57:17.284Z,85.00
2023-01-22T19:00:19.675Z,85.20
2023-01-22T19:03:22.779Z,85.25
2023-01-22T19:06:28.436Z,85.25
2023-01-22T19:09:31.039Z,85.13
2023-01-22T19:12:32.599Z,84.77
2023-01-22T19:15:34.020Z,84.89
2023-01-22T19:18:36.328Z,84.84
2023-01-22T19:21:39.762Z,84.81
2023-01-22T19:24:42.892Z,84.71
2023-01-22T19:27:44.241Z,84.73
2023-01-22T19:30:46.828Z,85.10
2023-01-22T19:33:50.777Z,85.23
2023-01-22T19:36:55.583Z,85.06
2023-01-22T19:39:57.506Z,85.21
2023-01-22T19:42:58.860Z,85.61
2023-01-22T19:46:03.477Z,85.63
2023-01-22T19:49:06.083Z,85.45
2023-01-22T19:52:08.892Z,85.41
2023-01-22T19:55:12.630Z,85.37
2023-01-22T19:58:14.234Z,85.20
2023-01-22T20:01:16.577Z,85.34
2023-01-22T20:04:29.097Z,85.14
2023-01-22T20:07:32.985Z,85.25
2023-01-22T20:10:38.214Z,85.53
2023-01-22T20:13:42.372Z,85.71
2023-01-22T20:16:44.849Z,85.26
2023-01-22T20:19:46.802Z,84.68
2023-01-22T20:22:49.006Z,84.67
2023-01-22T20:25:50.572Z,85.03
2023-01-22T20:28:52.033Z,85.18
2023-01-22T20:31:53.985Z,85.25
2023-01-22T20:34:55.830Z,85.35
2023-01-22T20:37:58.126Z,85.62
2023-01-22T20:41:01.565Z,85.44
2023-01-22T20:44:04.008Z,85.78
2023-01-22T20:47:05.866Z,85.75
2023-01-22T20:50:08.246Z,85.45
2023-01-22T20:53:09.609Z,85.20
2023-01-22T20:56:14.023Z,85.33
2023-01-22T20:59:16.745Z,85.61
2023-01-22T21:02:18.216Z,85.58
2023-01-22T21:05:20.011Z,85.49
2023-01-22T21:08:21.690Z,85.39
2023-01-22T21:11:24.840Z,85.38
2023-01-22T21:14:26.292Z,85.09
2023-01-22T21:17:27.702Z,85.10
2023-01-22T21:20:29.521Z,85.08
2023-01-22T21:23:30.854Z,85.13
2023-01-22T21:26:32.682Z,85.21
2023-01-22T21:29:34.140Z,85.59
2023-01-22T21:32:35.640Z,85.72
2023-01-22T21:35:37.050Z,85.40
2023-01-22T21:38:38.975Z,85.14
2023-01-22T21:41:40.411Z,84.92
2023-01-22T21:45:01.945Z,85.33
2023-01-22T21:48:03.370Z,85.70
2023-01-22T21:51:05.412Z,85.50
2023-01-22T21:54:06.768Z,84.98
2023-01-22T21:57:12.320Z,84.99
2023-01-22T22:00:15.609Z,85.81
2023-01-22T22:03:17.031Z,85.96
2023-01-22T22:06:18.703Z,85.77
2023-01-22T22:09:23.384Z,85.69
2023-01-22T22:12:26.166Z,85.74
2023-01-22T22:15:27.661Z,85.68
2023-01-22T22:18:29.896Z,85.71
2023-01-22T22:21:31.236Z,85.50
2023-01-22T22:24:32.622Z,85.50
2023-01-22T22:27:34.001Z,85.49
2023-01-22T22:30:35.495Z,85.09
2023-01-22T22:33:39.237Z,85.22
2023-01-22T22:36:40.728Z,85.48
2023-01-22T22:39:42.606Z,85.61
2023-01-22T22:42:43.992Z,85.56
2023-01-22T22:45:45.414Z,85.86
2023-01-22T22:48:47.984Z,85.71
2023-01-22T22:51:49.401Z,85.55
2023-01-22T22:54:50.742Z,85.69
2023-01-22T22:57:52.175Z,85.74
2023-01-22T23:00:53.574Z,85.59
2023-01-22T23:03:55.258Z,85.75
2023-01-22T23:06:56.763Z,85.64
2023-01-22T23:09:58.127Z,85.62
2023-01-22T23:13:02.013Z,85.60
2023-01-22T23:16:10.837Z,85.84
2023-01-22T23:19:24.209Z,85.61
2023-01-22T23:22:25.531Z,85.89
2023-01-22T23:25:27.371Z,86.15
2023-01-22T23:28:28.815Z,85.92
2023-01-22T23:31:32.361Z,85.81
2023-01-22T23:34:34.001Z,86.02
2023-01-22T23:37:35.548Z,85.98
2023-01-22T23:40:36.994Z,85.92
2023-01-22T23:43:38.748Z,86.09
2023-01-22T23:46:41.229Z,85.93
2023-01-22T23:49:42.622Z,85.84
2023-01-22T23:52:44.142Z,86.11
2023-01-22T23:55:45.585Z,85.77
2023-01-22T23:58:47.355Z,85.47
